createdAt,value
2019-03-18T00:01:37.194Z,95.00
2019-03-18T00:04:12.820Z,94.80
2019-03-18T00:06:42.435Z,94.50
2019-03-18T00:09:11.772Z,94.40
2019-03-18T00:11:41.402Z,94.20
2019-03-18T00:14:13.112Z,94.30
2019-03-18T00:16:48.637Z,94.00
2019-03-18T00:19:20.818Z,94.30
2019-03-18T00:21:50.245Z,94.10
2019-03-18T00:24:19.694Z,94.20
2019-03-18T00:26:49.078Z,94.20
2019-03-18T00:29:20.444Z,94.20
2019-03-18T00:31:50.065Z,93.90
2019-03-18T00:34:19.426Z,94.00
2019-03-18T00:36:49.631Z,94.00
2019-03-18T00:39:19.712Z,94.20
2019-03-18T00:41:53.165Z,94.00
2019-03-18T00:44:21.220Z,94.00
2019-03-18T00:46:50.705Z,93.90
2019-03-18T00:49:20.406Z,93.70
2019-03-18T00:51:49.759Z,93.60
2019-03-18T00:54:19.505Z,93.60
2019-03-18T00:56:48.914Z,93.70
2019-03-18T00:59:26.830Z,93.40
2019-03-18T01:01:56.370Z,93.80
2019-03-18T01:04:28.527Z,93.70
2019-03-18T01:07:00.069Z,93.60
2019-03-18T01:09:29.564Z,93.80
2019-03-18T01:11:59.043Z,93.60
2019-03-18T01:14:29.865Z,93.40
2019-03-18T01:17:02.665Z,93.50
2019-03-18T01:19:36.221Z,93.60
2019-03-18T01:22:07.120Z,93.50
2019-03-18T01:24:35.802Z,93.30
2019-03-18T01:27:08.901Z,93.50
2019-03-18T01:29:38.554Z,93.60
2019-03-18T01:32:10.913Z,93.50
2019-03-18T01:34:41.496Z,93.40
2019-03-18T01:37:23.425Z,93.10
2019-03-18T01:40:01.130Z,93.10
2019-03-18T01:42:36.051Z,93.10
2019-03-18T01:45:07.192Z,93.10
2019-03-18T01:47:39.781Z,93.20
2019-03-18T01:50:21.365Z,93.20
2019-03-18T01:53:03.966Z,93.20
2019-03-18T01:55:37.483Z,93.20
2019-03-18T01:58:07.923Z,93.30
2019-03-18T02:00:42.334Z,93.30
2019-03-18T02:03:11.887Z,93.50
2019-03-18T02:05:42.409Z,93.50
2019-03-18T02:08:15.409Z,93.50
2019-03-18T02:10:46.627Z,93.50
2019-03-18T02:13:21.508Z,93.80
2019-03-18T02:15:53.474Z,93.70
2019-03-18T02:18:23.799Z,93.50
2019-03-18T02:20:54.030Z,93.50
2019-03-18T02:23:25.775Z,93.40
2019-03-18T02:25:57.498Z,93.30
2019-03-18T02:28:29.663Z,93.30
2019-03-18T02:31:03.278Z,93.40
2019-03-18T02:33:34.024Z,93.40
2019-03-18T02:36:03.412Z,93.50
2019-03-18T02:38:33.554Z,93.60
2019-03-18T02:41:03.149Z,93.40
2019-03-18T02:43:33.591Z,93.50
2019-03-18T02:46:10.631Z,93.60
2019-03-18T02:48:39.620Z,93.60
2019-03-18T02:51:08.974Z,93.60
2019-03-18T02:53:38.809Z,93.70
2019-03-18T02:56:12.939Z,93.60
2019-03-18T02:58:42.879Z,93.60
2019-03-18T03:01:12.453Z,93.60
2019-03-18T03:03:41.543Z,93.80
2019-03-18T03:06:11.610Z,93.70
2019-03-18T03:08:45.871Z,93.90
2019-03-18T03:11:15.487Z,94.00
2019-03-18T03:13:49.749Z,94.10
2019-03-18T03:16:27.304Z,94.30
2019-03-18T03:18:53.570Z,94.20
2019-03-18T03:21:28.467Z,94.20
2019-03-18T03:23:57.920Z,94.20
2019-03-18T03:26:27.610Z,94.10
2019-03-18T03:28:59.419Z,94.20
2019-03-18T03:31:28.847Z,94.20
2019-03-18T03:33:58.214Z,94.30
2019-03-18T03:36:31.597Z,94.40
2019-03-18T03:39:05.641Z,94.40
2019-03-18T03:41:42.806Z,94.50
2019-03-18T03:44:15.569Z,94.40
2019-03-18T03:46:53.576Z,94.50
2019-03-18T03:49:23.106Z,94.50
2019-03-18T03:51:52.944Z,94.60
2019-03-18T03:54:23.214Z,94.60
2019-03-18T03:56:52.594Z,95.10
2019-03-18T03:59:23.724Z,94.80
2019-03-18T04:01:56.006Z,94.70
2019-03-18T04:04:25.503Z,94.80
2019-03-18T04:06:54.735Z,94.80
2019-03-18T04:09:27.775Z,94.90
2019-03-18T04:11:57.100Z,94.90
2019-03-18T04:14:26.940Z,94.90
2019-03-18T04:17:02.858Z,94.90
2019-03-18T04:19:30.541Z,94.80
2019-03-18T04:22:00.063Z,94.80
2019-03-18T04:24:30.390Z,94.70
2019-03-18T04:26:59.902Z,94.80
2019-03-18T04:29:29.399Z,94.80
2019-03-18T04:31:59.187Z,94.70
2019-03-18T04:34:28.550Z,94.70
2019-03-18T04:36:57.957Z,94.70
2019-03-18T04:39:27.310Z,94.80
2019-03-18T04:42:00.988Z,94.90
2019-03-18T04:44:29.809Z,94.90
2019-03-18T04:47:13.238Z,94.90
2019-03-18T04:49:29.982Z,94.90
2019-03-18T04:52:04.187Z,94.90
2019-03-18T04:54:34.674Z,94.80
2019-03-18T04:57:03.916Z,94.80
2019-03-18T04:59:37.240Z,94.70
2019-03-18T05:02:06.473Z,94.70
2019-03-18T05:04:35.734Z,94.80
2019-03-18T05:07:06.257Z,94.70
2019-03-18T05:09:40.382Z,94.60
2019-03-18T05:12:13.633Z,94.60
2019-03-18T05:14:43.110Z,94.60
2019-03-18T05:17:12.036Z,94.60
2019-03-18T05:19:42.381Z,94.70
2019-03-18T05:22:11.601Z,94.60
2019-03-18T05:24:41.451Z,94.40
2019-03-18T05:27:13.503Z,94.30
2019-03-18T05:29:44.936Z,94.20
2019-03-18T05:32:13.619Z,94.00
2019-03-18T05:34:44.753Z,93.80
2019-03-18T05:37:13.914Z,93.80
2019-03-18T05:39:51.764Z,93.80
2019-03-18T05:42:21.917Z,93.80
2019-03-18T05:44:51.555Z,93.80
2019-03-18T05:47:21.278Z,93.60
2019-03-18T05:49:54.048Z,93.50
2019-03-18T05:52:23.590Z,93.00
2019-03-18T05:54:53.131Z,93.20
2019-03-18T05:57:26.042Z,93.10
2019-03-18T05:59:55.363Z,92.90
2019-03-18T06:02:25.671Z,92.90
2019-03-18T06:05:02.281Z,92.90
2019-03-18T06:07:31.783Z,92.90
2019-03-18T06:10:03.386Z,92.80
2019-03-18T06:12:35.912Z,92.60
2019-03-18T06:15:09.012Z,92.60
2019-03-18T06:17:51.216Z,92.60
2019-03-18T06:20:14.805Z,92.50
2019-03-18T06:22:44.146Z,92.40
2019-03-18T06:25:13.310Z,92.40
2019-03-18T06:27:46.964Z,92.40
2019-03-18T06:30:17.724Z,92.30
2019-03-18T06:32:47.262Z,92.30
2019-03-18T06:35:16.784Z,92.20
2019-03-18T06:37:49.775Z,92.20
2019-03-18T06:40:23.262Z,92.10
2019-03-18T06:42:56.449Z,92.00
2019-03-18T06:45:28.290Z,91.80
2019-03-18T06:48:04.995Z,91.70
2019-03-18T06:50:29.219Z,91.50
2019-03-18T06:52:58.617Z,91.30
2019-03-18T06:55:28.322Z,91.10
2019-03-18T06:58:00.200Z,91.10
2019-03-18T07:00:33.833Z,90.90
2019-03-18T07:03:03.356Z,90.60
2019-03-18T07:05:32.658Z,90.40
2019-03-18T07:08:01.862Z,90.20
2019-03-18T07:10:30.804Z,90.20
2019-03-18T07:13:00.004Z,90.30
2019-03-18T07:15:31.802Z,90.00
2019-03-18T07:18:17.640Z,90.10
2019-03-18T07:20:36.927Z,90.10
2019-03-18T07:23:06.006Z,89.80
2019-03-18T07:25:35.677Z,88.70
2019-03-18T07:28:07.064Z,88.30
2019-03-18T07:30:36.337Z,87.20
2019-03-18T07:33:05.739Z,86.70
2019-03-18T07:35:35.249Z,86.10
2019-03-18T07:38:04.583Z,85.30
2019-03-18T07:40:37.106Z,84.20
2019-03-18T07:43:06.286Z,84.30
2019-03-18T07:45:35.502Z,84.20
2019-03-18T07:48:06.433Z,85.00
2019-03-18T07:50:38.684Z,85.20
2019-03-18T07:53:07.550Z,85.60
2019-03-18T07:55:41.155Z,85.80
2019-03-18T07:58:11.168Z,85.90
2019-03-18T08:00:43.844Z,85.70
2019-03-18T08:03:12.739Z,85.40
2019-03-18T08:05:44.191Z,84.50
2019-03-18T08:08:14.070Z,84.10
2019-03-18T08:10:42.994Z,83.10
2019-03-18T08:13:12.864Z,83.70
2019-03-18T08:15:48.510Z,81.90
2019-03-18T08:18:19.804Z,81.10
2019-03-18T08:20:48.688Z,79.50
2019-03-18T08:23:20.878Z,80.10
2019-03-18T08:25:49.850Z,78.70
2019-03-18T08:28:18.740Z,78.30
2019-03-18T08:30:47.730Z,77.30
2019-03-18T08:33:19.977Z,76.30
2019-03-18T08:35:52.881Z,75.90
2019-03-18T08:38:21.774Z,75.40
2019-03-18T08:40:54.359Z,74.90
2019-03-18T08:43:23.854Z,76.30
2019-03-18T08:45:52.743Z,74.80
2019-03-18T08:48:23.889Z,76.20
2019-03-18T08:50:52.777Z,74.70
2019-03-18T08:53:26.005Z,73.30
2019-03-18T08:55:57.521Z,73.70
2019-03-18T08:58:26.413Z,73.40
2019-03-18T09:00:55.412Z,74.30
2019-03-18T09:03:24.527Z,73.00
2019-03-18T09:05:55.868Z,70.90
2019-03-18T09:08:26.487Z,71.80
2019-03-18T09:10:55.255Z,71.60
2019-03-18T09:13:27.632Z,70.60
2019-03-18T09:15:59.083Z,68.40
2019-03-18T09:18:27.975Z,67.70
2019-03-18T09:21:01.065Z,67.90
2019-03-18T09:23:30.888Z,68.40
2019-03-18T09:25:59.867Z,69.00
2019-03-18T09:28:32.556Z,69.50
2019-03-18T09:31:01.456Z,70.00
2019-03-18T09:33:31.358Z,70.10
2019-03-18T09:36:02.147Z,70.10
2019-03-18T09:38:31.076Z,69.00
2019-03-18T09:40:59.967Z,68.70
2019-03-18T09:43:31.906Z,68.40
2019-03-18T09:45:59.487Z,67.60
2019-03-18T09:48:28.378Z,67.10
2019-03-18T09:50:57.267Z,66.10
2019-03-18T09:53:26.058Z,68.30
2019-03-18T09:55:55.864Z,69.10
2019-03-18T09:58:28.549Z,68.00
2019-03-18T10:00:57.442Z,68.00
2019-03-18T10:03:27.962Z,68.80
2019-03-18T10:06:01.665Z,68.70
2019-03-18T10:08:32.398Z,69.70
2019-03-18T10:11:05.288Z,66.90
2019-03-18T10:13:39.802Z,68.10
2019-03-18T10:16:08.692Z,66.60
2019-03-18T10:18:43.317Z,66.20
2019-03-18T10:21:13.139Z,63.70
2019-03-18T10:23:42.950Z,61.90
2019-03-18T10:26:11.935Z,59.40
2019-03-18T10:28:44.911Z,59.30
2019-03-18T10:31:13.506Z,59.00
2019-03-18T10:33:45.024Z,58.50
2019-03-18T10:36:14.047Z,58.30
2019-03-18T10:38:45.396Z,59.00
2019-03-18T10:41:18.011Z,60.50
2019-03-18T10:43:50.354Z,58.70
2019-03-18T10:46:20.260Z,57.90
2019-03-18T10:48:48.991Z,58.20
2019-03-18T10:51:17.756Z,58.20
2019-03-18T10:53:46.720Z,58.40
2019-03-18T10:56:18.443Z,58.70
2019-03-18T10:58:46.140Z,58.40
2019-03-18T11:01:15.028Z,58.00
2019-03-18T11:03:44.778Z,56.70
2019-03-18T11:06:13.751Z,56.70
2019-03-18T11:08:42.625Z,56.80
2019-03-18T11:11:12.485Z,56.40
2019-03-18T11:13:43.921Z,56.50
2019-03-18T11:16:12.877Z,56.70
2019-03-18T11:18:41.869Z,56.20
2019-03-18T11:21:18.233Z,56.50
2019-03-18T11:23:47.228Z,56.50
2019-03-18T11:26:19.436Z,56.50
2019-03-18T11:28:48.280Z,56.40
2019-03-18T11:31:21.538Z,55.50
2019-03-18T11:33:50.464Z,57.20
2019-03-18T11:36:19.574Z,55.60
2019-03-18T11:38:48.293Z,55.70
2019-03-18T11:41:17.690Z,55.70
2019-03-18T11:43:46.741Z,55.30
2019-03-18T11:46:16.651Z,54.90
2019-03-18T11:48:45.544Z,55.60
2019-03-18T11:51:14.538Z,56.40
2019-03-18T11:53:43.427Z,56.40
2019-03-18T11:56:15.185Z,57.10
2019-03-18T11:58:44.105Z,57.40
2019-03-18T12:01:13.893Z,58.10
2019-03-18T12:03:44.646Z,58.40
2019-03-18T12:06:16.055Z,57.40
2019-03-18T12:08:45.064Z,57.30
2019-03-18T12:11:14.059Z,56.60
2019-03-18T12:13:42.887Z,57.40
2019-03-18T12:16:11.849Z,57.80
2019-03-18T12:18:45.649Z,58.00
2019-03-18T12:21:21.115Z,57.40
2019-03-18T12:23:55.375Z,57.50
2019-03-18T12:26:22.960Z,58.30
2019-03-18T12:28:51.852Z,58.70
2019-03-18T12:31:29.078Z,58.90
2019-03-18T12:34:05.401Z,60.00
2019-03-18T12:36:38.997Z,61.20
2019-03-18T12:39:09.020Z,60.90
2019-03-18T12:41:45.484Z,61.00
2019-03-18T12:44:12.636Z,60.50
2019-03-18T12:46:41.522Z,59.40
2019-03-18T12:49:14.364Z,59.50
2019-03-18T12:51:43.301Z,59.80
2019-03-18T12:54:15.962Z,59.70
2019-03-18T12:56:44.861Z,60.30
2019-03-18T12:59:16.211Z,61.50
2019-03-18T13:01:47.567Z,61.90
2019-03-18T13:04:18.388Z,60.90
2019-03-18T13:06:51.292Z,61.10
2019-03-18T13:09:20.268Z,60.90
2019-03-18T13:11:53.261Z,61.00
2019-03-18T13:14:26.345Z,60.50
2019-03-18T13:16:55.234Z,60.80
2019-03-18T13:19:24.123Z,60.30
2019-03-18T13:21:55.781Z,60.80
2019-03-18T13:24:30.725Z,60.90
2019-03-18T13:27:00.484Z,61.80
2019-03-18T13:29:30.642Z,61.60
2019-03-18T13:32:01.374Z,61.50
2019-03-18T13:34:32.415Z,62.00
2019-03-18T13:37:02.287Z,61.40
2019-03-18T13:39:31.220Z,62.10
2019-03-18T13:42:01.134Z,61.70
2019-03-18T13:44:31.045Z,61.00
2019-03-18T13:47:04.543Z,60.90
2019-03-18T13:49:34.430Z,59.90
2019-03-18T13:52:09.764Z,60.20
2019-03-18T13:54:39.607Z,60.30
2019-03-18T13:57:08.601Z,59.80
2019-03-18T13:59:37.491Z,59.80
2019-03-18T14:02:06.293Z,61.00
2019-03-18T14:04:36.199Z,60.30
2019-03-18T14:07:05.187Z,59.70
2019-03-18T14:09:36.556Z,60.30
2019-03-18T14:12:09.523Z,60.00
2019-03-18T14:14:38.514Z,60.20
2019-03-18T14:17:11.400Z,60.50
2019-03-18T14:19:46.241Z,59.20
2019-03-18T14:22:15.219Z,59.00
2019-03-18T14:24:44.115Z,59.60
2019-03-18T14:27:16.785Z,59.60
2019-03-18T14:29:45.676Z,59.30
2019-03-18T14:32:15.593Z,60.10
2019-03-18T14:34:51.343Z,61.20
2019-03-18T14:37:20.336Z,60.70
2019-03-18T14:39:53.013Z,60.70
2019-03-18T14:42:22.767Z,61.00
2019-03-18T14:44:51.716Z,60.80
2019-03-18T14:47:20.657Z,60.50
2019-03-18T14:49:50.619Z,61.90
2019-03-18T14:52:19.653Z,61.60
2019-03-18T14:54:48.602Z,61.20
2019-03-18T14:57:17.605Z,61.50
2019-03-18T14:59:47.878Z,61.60
2019-03-18T15:02:20.597Z,61.90
2019-03-18T15:04:49.409Z,61.90
2019-03-18T15:07:19.200Z,62.10
2019-03-18T15:09:48.194Z,62.60
2019-03-18T15:12:19.645Z,63.00
2019-03-18T15:14:53.473Z,62.90
2019-03-18T15:17:30.023Z,62.20
2019-03-18T15:19:59.011Z,61.80
2019-03-18T15:22:33.723Z,62.50
2019-03-18T15:25:02.624Z,62.10
2019-03-18T15:27:31.524Z,62.20
2019-03-18T15:30:12.160Z,62.00
2019-03-18T15:32:38.046Z,62.70
2019-03-18T15:35:11.876Z,63.00
2019-03-18T15:37:40.795Z,62.50
2019-03-18T15:40:15.339Z,62.20
2019-03-18T15:42:45.233Z,61.70
2019-03-18T16:40:21.958Z,67.40
2019-03-18T16:42:50.843Z,68.10
2019-03-18T16:45:20.120Z,68.80
2019-03-18T16:47:49.092Z,69.10
2019-03-18T16:50:23.559Z,69.50
2019-03-18T16:52:52.648Z,70.40
2019-03-18T16:55:21.547Z,70.90
2019-03-18T16:57:50.428Z,71.50
2019-03-18T17:00:23.954Z,71.00
2019-03-18T17:02:53.745Z,71.50
2019-03-18T17:05:22.628Z,71.80
2019-03-18T17:07:54.084Z,72.10
2019-03-18T17:10:23.789Z,72.30
2019-03-18T17:12:56.468Z,72.10
2019-03-18T17:15:25.371Z,72.10
2019-03-18T17:17:55.184Z,71.80
2019-03-18T17:20:26.056Z,72.20
2019-03-18T17:22:57.392Z,72.60
2019-03-18T17:25:33.820Z,73.30
2019-03-18T17:28:02.809Z,73.30
2019-03-18T17:30:31.642Z,73.50
2019-03-18T17:33:00.509Z,73.40
2019-03-18T17:35:33.185Z,73.50
2019-03-18T17:38:02.163Z,72.80
2019-03-18T17:40:31.047Z,72.60
2019-03-18T17:42:59.940Z,72.90
2019-03-18T17:45:28.829Z,72.50
2019-03-18T17:48:01.816Z,72.60
2019-03-18T17:50:30.194Z,72.70
2019-03-18T17:53:02.894Z,72.60
2019-03-18T17:55:32.070Z,72.60
2019-03-18T17:58:06.693Z,73.70
2019-03-18T18:00:53.607Z,74.10
2019-03-18T18:03:23.520Z,74.70
2019-03-18T18:05:54.870Z,75.00
2019-03-18T18:08:23.773Z,75.20
2019-03-18T18:10:52.554Z,75.90
2019-03-18T18:13:22.210Z,76.30
2019-03-18T18:15:51.069Z,76.60
2019-03-18T18:18:20.238Z,77.60
2019-03-18T18:20:49.004Z,77.00
2019-03-18T18:23:17.751Z,77.70
2019-03-18T18:25:50.916Z,77.70
2019-03-18T18:28:19.631Z,77.80
2019-03-18T18:30:48.710Z,77.70
2019-03-18T18:33:17.466Z,77.70
2019-03-18T18:35:49.827Z,77.50
2019-03-18T18:38:19.552Z,77.70
2019-03-18T18:40:48.318Z,77.30
2019-03-18T18:43:19.978Z,76.90
2019-03-18T18:45:48.455Z,76.40
2019-03-18T18:48:17.229Z,76.00
2019-03-18T18:50:45.961Z,76.10
2019-03-18T18:53:25.592Z,76.20
2019-03-18T18:55:45.159Z,76.50
2019-03-18T18:58:13.917Z,75.50
2019-03-18T19:00:43.074Z,75.60
2019-03-18T19:03:11.830Z,75.70
2019-03-18T19:05:44.252Z,75.40
2019-03-18T19:08:13.024Z,75.20
2019-03-18T19:10:41.786Z,75.90
2019-03-18T19:13:10.575Z,75.40
2019-03-18T19:15:41.497Z,75.30
2019-03-18T19:18:10.285Z,75.40
2019-03-18T19:20:39.997Z,75.90
2019-03-18T19:23:15.706Z,76.30
2019-03-18T19:25:44.635Z,76.40
2019-03-18T19:28:14.653Z,77.10
2019-03-18T19:30:44.670Z,77.60
2019-03-18T19:33:13.563Z,77.30
2019-03-18T19:35:42.547Z,77.70
2019-03-18T19:38:11.443Z,77.60
2019-03-18T19:40:40.351Z,77.50
2019-03-18T19:43:09.218Z,77.70
2019-03-18T19:45:38.214Z,77.70
2019-03-18T19:48:07.202Z,77.80
2019-03-18T19:50:36.096Z,78.10
2019-03-18T19:53:08.978Z,77.80
2019-03-18T19:55:41.981Z,77.70
2019-03-18T19:58:10.953Z,77.70
2019-03-18T20:00:39.946Z,77.70
2019-03-18T20:03:09.965Z,77.50
2019-03-18T20:05:38.870Z,76.90
2019-03-18T20:08:10.405Z,77.00
2019-03-18T20:10:39.604Z,77.10
2019-03-18T20:13:08.600Z,76.80
2019-03-18T20:15:38.452Z,76.70
2019-03-18T20:18:07.607Z,76.90
2019-03-18T20:20:36.491Z,76.70
2019-03-18T20:23:05.396Z,76.70
2019-03-18T20:25:34.374Z,76.30
2019-03-18T20:28:03.266Z,77.20
2019-03-18T20:30:32.259Z,76.40
2019-03-18T20:33:01.052Z,76.30
2019-03-18T20:35:31.065Z,75.90
2019-03-18T20:38:00.051Z,75.50
2019-03-18T20:40:28.942Z,76.00
2019-03-18T20:42:57.831Z,75.90
2019-03-18T20:45:30.920Z,75.60
2019-03-18T20:47:59.813Z,75.50
2019-03-18T20:50:28.801Z,75.40
2019-03-18T20:52:58.760Z,76.00
2019-03-18T20:55:37.544Z,76.00
2019-03-18T20:58:06.945Z,75.90
2019-03-18T21:00:35.966Z,75.90
2019-03-18T21:03:11.723Z,75.50
2019-03-18T21:05:40.796Z,75.70
2019-03-18T21:08:10.802Z,75.00
2019-03-18T21:10:43.165Z,74.80
2019-03-18T21:13:13.904Z,75.00
2019-03-18T21:15:42.894Z,75.40
2019-03-18T21:18:12.146Z,75.10
2019-03-18T21:20:45.849Z,75.10
2019-03-18T21:23:13.963Z,75.00
2019-03-18T21:25:43.785Z,75.00
2019-03-18T21:28:12.666Z,75.10
2019-03-18T21:30:41.722Z,75.00
2019-03-18T21:33:10.762Z,74.70
2019-03-18T21:35:40.499Z,75.10
2019-03-18T21:38:09.778Z,75.80
2019-03-18T21:40:40.298Z,76.70
2019-03-18T21:43:12.089Z,76.70
2019-03-18T21:45:41.039Z,76.50
2019-03-18T21:48:10.032Z,76.40
2019-03-18T21:50:40.775Z,77.10
2019-03-18T21:53:09.758Z,76.80
2019-03-18T21:55:38.591Z,76.70
2019-03-18T21:58:07.439Z,76.80
2019-03-18T22:00:36.529Z,76.80
2019-03-18T22:03:05.517Z,76.70
2019-03-18T22:05:34.514Z,76.50
2019-03-18T22:08:03.400Z,76.20
2019-03-18T22:10:32.834Z,76.50
2019-03-18T22:13:05.183Z,76.60
2019-03-18T22:15:34.065Z,76.60
2019-03-18T22:18:03.986Z,76.90
2019-03-18T22:20:32.874Z,77.40
2019-03-18T22:23:01.760Z,78.30
2019-03-18T22:25:35.014Z,79.00
2019-03-18T22:28:03.838Z,80.00
2019-03-18T22:30:32.728Z,81.10
2019-03-18T22:33:01.630Z,81.40
2019-03-18T22:35:30.508Z,81.20
2019-03-18T22:37:59.501Z,81.60
2019-03-18T22:40:28.393Z,82.00
2019-03-18T22:42:57.387Z,82.30
2019-03-18T22:45:26.275Z,82.60
2019-03-18T22:47:55.066Z,82.50
2019-03-18T22:50:26.614Z,82.50
2019-03-18T22:52:55.504Z,82.50
2019-03-18T22:55:24.497Z,82.50
2019-03-18T22:57:54.394Z,82.40
2019-03-18T23:00:33.954Z,82.70
2019-03-18T23:03:02.946Z,82.80
2019-03-18T23:05:34.392Z,82.80
2019-03-18T23:08:05.673Z,82.60
2019-03-18T23:10:34.525Z,83.20
2019-03-18T23:13:06.235Z,83.80
2019-03-18T23:15:35.846Z,84.00
2019-03-18T23:18:04.367Z,83.90
2019-03-18T23:20:33.258Z,83.70
2019-03-18T23:23:02.145Z,83.40
2019-03-18T23:25:35.237Z,83.10
2019-03-18T23:28:04.228Z,83.20
2019-03-18T23:30:37.318Z,83.20
2019-03-18T23:33:12.041Z,83.40
2019-03-18T23:35:46.672Z,83.50
2019-03-18T23:38:22.152Z,83.50
2019-03-18T23:40:53.455Z,84.00
2019-03-18T23:43:22.347Z,84.20
2019-03-18T23:45:51.350Z,84.40
2019-03-18T23:48:22.897Z,84.70
2019-03-18T23:50:54.451Z,84.80
2019-03-18T23:53:23.234Z,84.70
2019-03-18T23:55:52.124Z,84.20
2019-03-18T23:58:25.812Z,83.50
